This is the latest recevied weather packets stored in our database for station/object F4JSG-10. If no packets are shown the sender has not sent any weather packets the latest 1 day(s).
| Time | Temp. | Humidity | Pressure | Rain* | Wind** | Luminosity | Snow |
|---|---|---|---|---|---|---|---|
| 1788576217 | 22.22° C | 63% | 993.1 hPa | - | - | - | - |
| 1788575317 | 22.22° C | 63% | 993.1 hPa | - | - | - | - |
| 1788574417 | 22.22° C | 61% | 992.8 hPa | - | - | - | - |
| 1788573517 | 22.22° C | 61% | 993 hPa | - | - | - | - |
| 1788572617 | 22.22° C | 61% | 992.8 hPa | - | - | - | - |
| 1788571703 | 22.22° C | 60% | 992.8 hPa | - | - | - | - |
| 1788570803 | 22.22° C | 60% | 992.7 hPa | - | - | - | - |
| 1788569903 | 22.22° C | 60% | 992.7 hPa | - | - | - | - |
| 1788569003 | 22.22° C | 60% | 992.4 hPa | - | - | - | - |
| 1788568103 | 22.22° C | 60% | 992.4 hPa | - | - | - | - |
| 1788567203 | 22.78° C | 58% | 992.4 hPa | - | - | - | - |
| 1788566303 | 22.78° C | 57% | 992.2 hPa | - | - | - | - |
| 1788565402 | 23.33° C | 56% | 992 hPa | - | - | - | - |
| 1788564502 | 23.33° C | 54% | 991.9 hPa | - | - | - | - |
| 1788563602 | 23.89° C | 49% | 991.7 hPa | - | - | - | - |
| 1788562702 | 24.44° C | 46% | 991.6 hPa | - | - | - | - |
| 1788561802 | 25° C | 45% | 991.1 hPa | - | - | - | - |
| 1788560902 | 25° C | 44% | 990.8 hPa | - | - | - | - |
| 1788560002 | 25° C | 43% | 990.6 hPa | - | - | - | - |
| 1788559102 | 25° C | 41% | 990.4 hPa | - | - | - | - |
| 1788558202 | 25° C | 40% | 990.3 hPa | - | - | - | - |
| 1788557302 | 25° C | 40% | 990.3 hPa | - | - | - | - |
| 1788556402 | 25° C | 41% | 990.3 hPa | - | - | - | - |
| 1788555501 | 24.44° C | 43% | 990.3 hPa | - | - | - | - |
| 1788554601 | 24.44° C | 50% | 990.3 hPa | - | - | - | - |
* Rain since midnight (hover to see other rain measurements)
** Current wind speed in m/s (hover to see current wind gust speed)